Time;durP1;ratioP1;P1;durP2;ratioP2;P2;SDS_P1;SDS_P2;PMS_P1;PMS_P2;Temp;Humidity;BMP_temperature;BMP_pressure;BME280_temperature;BME280_humidity;BME280_pressure;Samples;Min_cycle;Max_cycle;Signal;HPM_P1;HPM_P2
2021/12/04 00:00:52;;;;;;;4.68;0.73;;;;;;;19.52;33.91;99926.44;7308198;19;131193;-69
2021/12/04 00:03:20;;;;;;;1.83;0.60;;;;;;;19.51;33.77;99910.09;7310621;19;134427;-70
2021/12/04 00:05:54;;;;;;;4.97;0.90;;;;;;;19.50;34.04;99908.41;7306066;19;132468;-69
2021/12/04 00:08:24;;;;;;;2.50;0.95;;;;;;;19.47;34.08;99900.63;7309888;19;129132;-68
2021/12/04 00:10:52;;;;;;;3.58;0.80;;;;;;;19.46;33.73;99890.66;7306971;19;128848;-68
2021/12/04 00:13:19;;;;;;;2.92;0.85;;;;;;;19.44;33.82;99885.41;7311381;19;131043;-69
2021/12/04 00:15:46;;;;;;;3.97;0.70;;;;;;;19.43;34.09;99880.94;7308176;19;131447;-69
2021/12/04 00:18:13;;;;;;;3.78;0.60;;;;;;;19.42;33.95;99867.38;7308657;19;129166;-69
2021/12/04 00:20:41;;;;;;;4.78;0.75;;;;;;;19.41;34.28;99865.72;7306778;19;129287;-70
2021/12/04 00:23:09;;;;;;;0.90;0.50;;;;;;;19.38;33.86;99867.91;7309030;19;131203;-69
2021/12/04 00:25:37;;;;;;;3.10;0.70;;;;;;;19.37;34.27;99871.81;7317306;19;131446;-69
2021/12/04 00:28:05;;;;;;;4.63;0.70;;;;;;;19.35;33.91;99862.91;7315392;19;135965;-69
2021/12/04 00:30:32;;;;;;;2.03;0.60;;;;;;;19.34;34.31;99858.47;7317691;19;128984;-69
2021/12/04 00:33:06;;;;;;;2.65;0.70;;;;;;;19.32;33.94;99849.59;7314944;19;131135;-69
2021/12/04 00:35:43;;;;;;;1.83;0.50;;;;;;;19.31;34.42;99853.50;7314536;19;132030;-69
2021/12/04 00:51:45;;;;;;;2.78;0.60;;;;;;;19.21;34.12;99834.06;7316504;19;128898;-68
2021/12/04 00:54:13;;;;;;;0.90;0.47;;;;;;;19.20;34.08;99843.50;7316175;19;131545;-69
2021/12/04 00:56:42;;;;;;;3.67;0.73;;;;;;;19.19;34.42;99837.09;7317693;19;131891;-69
2021/12/04 00:59:10;;;;;;;2.78;0.57;;;;;;;19.18;34.57;99832.66;7313242;19;132027;-68
2021/12/04 01:01:39;;;;;;;1.63;0.60;;;;;;;19.17;34.43;99827.41;7314636;19;129443;-69
2021/12/04 01:04:17;;;;;;;2.72;0.50;;;;;;;19.16;34.42;99832.09;7312067;19;131147;-68
2021/12/04 01:06:44;;;;;;;2.08;0.60;;;;;;;19.14;34.14;99836.28;7315578;19;131721;-68
2021/12/04 01:09:13;;;;;;;1.95;0.50;;;;;;;19.12;34.58;99831.00;7311680;19;132058;-69
2021/12/04 01:11:42;;;;;;;1.85;0.65;;;;;;;19.12;34.50;99827.38;7315665;19;129014;-69
2021/12/04 01:14:11;;;;;;;3.70;0.43;;;;;;;19.11;34.67;99822.94;7315325;19;131008;-69
2021/12/04 01:16:38;;;;;;;3.33;0.50;;;;;;;19.11;34.45;99817.41;7311809;19;132205;-68
2021/12/04 01:19:05;;;;;;;1.30;0.40;;;;;;;19.08;34.70;99818.81;7315939;19;131628;-69
2021/12/04 01:21:32;;;;;;;1.63;0.43;;;;;;;19.07;34.57;99818.00;7312464;19;131319;-68
2021/12/04 01:23:58;;;;;;;1.13;0.40;;;;;;;19.06;34.67;99816.31;7317278;19;132019;-68
2021/12/04 01:26:26;;;;;;;1.30;0.45;;;;;;;19.05;34.70;99814.66;7310663;19;131152;-68
2021/12/04 01:28:53;;;;;;;1.73;0.70;;;;;;;19.05;34.75;99824.91;7315034;19;129328;-68
2021/12/04 01:31:20;;;;;;;3.42;0.60;;;;;;;19.03;34.57;99825.19;7312657;19;129107;-69
2021/12/04 01:33:47;;;;;;;4.82;0.63;;;;;;;19.03;34.48;99827.94;7314764;19;131553;-68
2021/12/04 01:36:14;;;;;;;1.75;0.47;;;;;;;19.02;34.50;99831.81;7313761;19;131801;-68
2021/12/04 01:38:41;;;;;;;1.95;0.50;;;;;;;19.00;34.37;99828.50;7309670;19;129075;-68
2021/12/04 01:41:07;;;;;;;2.35;0.43;;;;;;;19.00;34.57;99824.91;7315049;19;129512;-68
2021/12/04 01:43:34;;;;;;;0.35;0.20;;;;;;;18.99;34.75;99826.81;7311576;19;131412;-68
2021/12/04 01:46:01;;;;;;;0.90;0.40;;;;;;;18.98;34.50;99819.63;7316056;19;131077;-69
2021/12/04 01:48:28;;;;;;;2.13;0.50;;;;;;;18.97;34.43;99817.94;7311100;19;130980;-69
2021/12/04 01:50:55;;;;;;;0.82;0.30;;;;;;;18.96;34.86;99813.50;7315009;19;131185;-68
2021/12/04 01:53:25;;;;;;;1.60;0.50;;;;;;;18.94;34.44;99807.44;7310745;19;131132;-69
2021/12/04 01:55:54;;;;;;;0.98;0.40;;;;;;;18.93;34.70;99805.78;7312050;19;131835;-68
2021/12/04 01:58:23;;;;;;;2.38;0.43;;;;;;;18.93;34.68;99794.69;7314337;19;129440;-69
2021/12/04 02:00:51;;;;;;;1.42;0.40;;;;;;;18.93;34.48;99800.22;7312462;19;129411;-68
2021/12/04 02:03:19;;;;;;;1.55;0.45;;;;;;;18.91;34.70;99796.91;7316235;19;132733;-69
2021/12/04 02:05:47;;;;;;;1.58;0.50;;;;;;;18.89;34.58;99805.47;7311366;19;131218;-68
2021/12/04 02:08:17;;;;;;;2.15;0.40;;;;;;;18.89;34.52;99790.78;7314914;19;129548;-69
2021/12/04 02:10:46;;;;;;;1.15;0.32;;;;;;;18.88;34.67;99780.81;7312142;19;129183;-68
2021/12/04 02:13:15;;;;;;;0.90;0.40;;;;;;;18.86;34.60;99781.09;7314597;19;131142;-68
2021/12/04 02:15:43;;;;;;;0.95;0.35;;;;;;;18.87;34.92;99768.06;7311020;19;131014;-69
2021/12/04 02:18:12;;;;;;;0.73;0.40;;;;;;;18.84;35.01;99769.47;7312917;19;129068;-69
2021/12/04 02:20:39;;;;;;;0.57;0.40;;;;;;;18.86;34.92;99774.72;7315083;19;128821;-69
2021/12/04 02:23:08;;;;;;;1.30;0.60;;;;;;;18.84;34.78;99774.16;7311358;19;131223;-69
2021/12/04 02:25:35;;;;;;;0.55;0.30;;;;;;;18.82;34.97;99757.00;7314852;19;132021;-68
2021/12/04 02:28:05;;;;;;;1.48;0.50;;;;;;;18.82;34.90;99759.75;7310946;19;129104;-69
2021/12/04 02:30:36;;;;;;;0.32;0.30;;;;;;;18.80;35.12;99759.22;7315315;19;128979;-68
2021/12/04 02:33:11;;;;;;;0.47;0.32;;;;;;;18.79;34.95;99747.28;7311019;19;131903;-69
2021/12/04 02:35:45;;;;;;;0.93;0.40;;;;;;;18.80;34.69;99742.59;7313812;19;131269;-68
2021/12/04 02:38:12;;;;;;;1.17;0.30;;;;;;;18.79;34.81;99741.72;7314847;19;129140;-69
2021/12/04 02:40:42;;;;;;;1.50;0.40;;;;;;;18.76;35.15;99734.81;7310962;19;129209;-68
2021/12/04 02:43:10;;;;;;;0.65;0.32;;;;;;;18.76;34.84;99736.75;7314943;19;132222;-68
2021/12/04 02:45:38;;;;;;;0.45;0.30;;;;;;;18.74;34.90;99736.22;7310194;19;130996;-69
2021/12/04 02:48:05;;;;;;;1.35;0.40;;;;;;;18.74;35.06;99738.97;7313891;19;129693;-69
2021/12/04 02:50:31;;;;;;;0.73;0.28;;;;;;;18.73;35.06;99732.59;7311164;19;129230;-68
2021/12/04 02:52:58;;;;;;;1.50;0.50;;;;;;;18.72;34.86;99736.47;7313837;19;132033;-68
2021/12/04 02:55:25;;;;;;;0.88;0.32;;;;;;;18.72;35.09;99738.41;7309294;19;131194;-68
2021/12/04 02:57:52;;;;;;;1.13;0.30;;;;;;;18.71;34.86;99739.53;7312180;19;129169;-67
2021/12/04 03:00:22;;;;;;;2.95;0.50;;;;;;;18.70;34.92;99727.63;7314357;19;128836;-69
2021/12/04 03:02:49;;;;;;;2.05;0.30;;;;;;;18.70;34.87;99730.41;7309756;19;131152;-69
2021/12/04 03:05:24;;;;;;;1.35;0.47;;;;;;;18.68;34.73;99735.38;7313579;19;131058;-68
2021/12/04 03:07:52;;;;;;;1.20;0.47;;;;;;;18.69;35.10;99733.41;7310546;19;128857;-68
2021/12/04 03:10:19;;;;;;;0.38;0.30;;;;;;;18.67;35.05;99728.16;7313151;19;129226;-68
2021/12/04 03:12:46;;;;;;;0.50;0.30;;;;;;;18.67;35.09;99730.94;7308371;19;131884;-69
2021/12/04 03:15:13;;;;;;;0.60;0.30;;;;;;;18.66;35.30;99720.97;7312620;19;133542;-69
2021/12/04 03:17:40;;;;;;;0.32;0.20;;;;;;;18.65;34.84;99716.53;7306970;19;129392;-68
2021/12/04 03:20:08;;;;;;;2.05;0.52;;;;;;;18.64;35.25;99712.09;7309802;19;129561;-68
2021/12/04 03:22:34;;;;;;;0.85;0.35;;;;;;;18.63;34.81;99707.66;7311575;19;133347;-69
2021/12/04 03:25:01;;;;;;;0.40;0.20;;;;;;;18.63;34.90;99699.34;7310256;19;131044;-68
2021/12/04 03:27:31;;;;;;;1.85;0.50;;;;;;;18.62;35.20;99700.44;7313111;19;128976;-67
2021/12/04 03:30:16;;;;;;;1.65;0.40;;;;;;;18.62;34.88;99689.38;7308713;19;129376;-67
2021/12/04 03:35:13;;;;;;;1.10;0.40;;;;;;;18.61;34.88;99691.31;7311284;19;131501;-68
2021/12/04 03:41:06;;;;;;;1.40;0.45;;;;;;;18.57;35.34;99697.69;7311181;19;128910;-68
2021/12/04 03:43:34;;;;;;;0.70;0.30;;;;;;;18.57;35.19;99692.16;7308600;19;131122;-68
2021/12/04 03:46:02;;;;;;;0.45;0.25;;;;;;;18.56;34.99;99680.22;7309931;19;131237;-69
2021/12/04 03:51:00;;;;;;;0.30;0.20;;;;;;;18.55;35.24;99678.56;7310776;19;128946;-68
2021/12/04 03:53:28;;;;;;;0.30;0.30;;;;;;;18.54;35.22;99679.66;7312188;19;131074;-68
2021/12/04 03:55:55;;;;;;;0.47;0.30;;;;;;;18.54;35.26;99684.38;7308176;19;131381;-68
2021/12/04 03:58:23;;;;;;;0.45;0.30;;;;;;;18.53;35.26;99678.00;7311878;19;132359;-68
2021/12/04 04:00:51;;;;;;;0.30;0.30;;;;;;;18.54;35.17;99681.63;7313756;19;130345;-69
2021/12/04 04:03:18;;;;;;;0.95;0.40;;;;;;;18.53;35.40;99679.94;7313828;19;132101;-69
2021/12/04 04:05:45;;;;;;;1.35;0.30;;;;;;;18.52;35.03;99684.69;7313043;19;130864;-69
2021/12/04 04:08:12;;;;;;;0.32;0.25;;;;;;;18.52;35.06;99683.81;7315636;19;128951;-69
2021/12/04 04:10:40;;;;;;;1.33;0.38;;;;;;;18.52;35.24;99681.06;7315945;19;129622;-69
2021/12/04 04:13:08;;;;;;;1.05;0.30;;;;;;;18.51;35.47;99673.84;7315412;19;131102;-67
2021/12/04 04:15:35;;;;;;;0.63;0.40;;;;;;;18.52;35.30;99678.28;7317453;19;131082;-69
2021/12/04 04:18:03;;;;;;;0.82;0.20;;;;;;;18.50;35.42;99670.28;7314650;19;129033;-68
2021/12/04 04:20:30;;;;;;;0.47;0.30;;;;;;;18.49;35.24;99667.75;7318722;19;129560;-68
2021/12/04 04:22:56;;;;;;;0.40;0.30;;;;;;;18.48;35.18;99664.16;7312678;19;131082;-69
2021/12/04 04:25:23;;;;;;;0.30;0.22;;;;;;;18.46;35.05;99669.97;7319134;19;131929;-69
2021/12/04 04:27:50;;;;;;;0.60;0.32;;;;;;;18.46;35.33;99669.97;7314281;19;129514;-67
2021/12/04 04:30:20;;;;;;;0.30;0.30;;;;;;;18.46;35.32;99664.44;7317800;19;129584;-68
2021/12/04 04:32:48;;;;;;;1.50;0.30;;;;;;;18.48;35.14;99660.56;7314939;19;131026;-69
2021/12/04 04:35:19;;;;;;;1.30;0.20;;;;;;;18.45;35.61;99662.78;7317318;19;131610;-69
2021/12/04 04:59:47;;;;;;;0.88;0.28;;;;;;;18.37;35.32;99635.59;7314321;19;130443;-69
2021/12/04 05:13:06;;;;;;;1.02;0.30;;;;;;;18.34;35.48;99627.84;7313202;19;129078;-68
2021/12/04 05:20:55;;;;;;;0.40;0.20;;;;;;;18.32;35.20;99610.69;7313252;19;129166;-68
2021/12/04 05:23:22;;;;;;;0.30;0.20;;;;;;;18.31;35.42;99607.06;7312052;19;129090;-68
2021/12/04 05:25:50;;;;;;;0.73;0.20;;;;;;;18.29;35.26;99614.81;7312325;19;131044;-68
2021/12/04 05:28:17;;;;;;;0.40;0.30;;;;;;;18.29;35.26;99614.00;7314962;19;131066;-68
2021/12/04 05:30:44;;;;;;;0.17;0.10;;;;;;;18.31;35.40;99614.56;7312255;19;128992;-68
2021/12/04 05:33:11;;;;;;;0.40;0.30;;;;;;;18.30;35.34;99621.22;7313045;19;128881;-68
2021/12/04 05:35:38;;;;;;;1.27;0.30;;;;;;;18.30;35.21;99619.25;7315539;19;132128;-67
2021/12/04 05:38:05;;;;;;;0.20;0.20;;;;;;;18.29;35.31;99619.53;7312563;19;131166;-68
2021/12/04 05:40:32;;;;;;;0.95;0.28;;;;;;;18.29;35.28;99619.53;7314600;19;129004;-68
2021/12/04 05:43:02;;;;;;;0.40;0.20;;;;;;;18.28;35.34;99609.56;7312312;19;129195;-68
2021/12/04 05:45:33;;;;;;;0.65;0.20;;;;;;;18.28;35.67;99606.81;7314129;19;130987;-69
2021/12/04 05:55:31;;;;;;;0.60;0.30;;;;;;;18.27;35.32;99619.00;7311893;19;131085;-68
2021/12/04 05:57:58;;;;;;;0.68;0.30;;;;;;;18.25;35.60;99610.13;7312402;19;131468;-69
2021/12/04 06:00:26;;;;;;;0.45;0.15;;;;;;;18.25;35.66;99607.34;7311950;19;128854;-68
2021/12/04 06:02:57;;;;;;;0.68;0.30;;;;;;;18.25;35.32;99610.13;7312704;19;130924;-68
2021/12/04 06:05:24;;;;;;;0.32;0.20;;;;;;;18.24;35.37;99606.53;7310940;19;131121;-69
2021/12/04 06:07:51;;;;;;;0.52;0.20;;;;;;;18.24;35.62;99611.22;7314448;19;132032;-67
2021/12/04 06:10:18;;;;;;;0.30;0.20;;;;;;;18.24;35.40;99616.75;7311294;19;129089;-68
2021/12/04 06:12:44;;;;;;;0.47;0.20;;;;;;;18.23;35.48;99612.31;7314526;19;130879;-68
2021/12/04 06:15:11;;;;;;;0.73;0.28;;;;;;;18.22;35.33;99610.66;7313153;19;131185;-69
2021/12/04 06:17:38;;;;;;;0.50;0.20;;;;;;;18.22;35.39;99608.75;7312008;19;131192;-68
2021/12/04 06:22:50;;;;;;;0.28;0.25;;;;;;;18.20;35.64;99608.19;7309614;19;129031;-69
2021/12/04 06:25:19;;;;;;;0.65;0.10;;;;;;;18.21;35.49;99603.50;7314237;19;131020;-68
2021/12/04 06:27:46;;;;;;;0.28;0.15;;;;;;;18.20;35.70;99610.13;7309005;19;130985;-68
2021/12/04 06:30:16;;;;;;;0.30;0.20;;;;;;;18.20;35.33;99604.59;7308679;19;129658;-68
2021/12/04 06:32:46;;;;;;;1.02;0.20;;;;;;;18.20;35.62;99613.72;7309295;19;129188;-69
2021/12/04 06:35:14;;;;;;;0.40;0.30;;;;;;;18.20;35.37;99610.13;7304756;19;131074;-69
2021/12/04 06:37:41;;;;;;;0.40;0.30;;;;;;;18.23;35.58;99613.19;7303426;19;131940;-69
2021/12/04 06:40:11;;;;;;;0.60;0.30;;;;;;;18.29;35.48;99609.28;7309749;19;128983;-69
2021/12/04 06:42:40;;;;;;;0.30;0.20;;;;;;;18.35;35.37;99606.53;7312473;19;128962;-69
2021/12/04 06:45:08;;;;;;;0.30;0.20;;;;;;;18.48;35.36;99610.69;7309964;19;132321;-68
2021/12/04 06:47:36;;;;;;;0.20;0.20;;;;;;;18.61;35.04;99599.91;7313927;19;131001;-68
2021/12/04 06:50:10;;;;;;;0.25;0.10;;;;;;;18.79;35.05;99605.16;7311009;19;129505;-69
2021/12/04 06:52:41;;;;;;;0.20;0.20;;;;;;;19.00;34.60;99604.00;7313431;19;129204;-69
2021/12/04 06:55:08;;;;;;;0.25;0.20;;;;;;;19.22;34.74;99600.06;7304973;19;131994;-69
2021/12/04 06:57:38;;;;;;;0.35;0.20;;;;;;;19.46;34.13;99597.50;7309165;19;131151;-69
2021/12/04 07:00:07;;;;;;;0.60;0.22;;;;;;;19.73;34.05;99603.72;7312188;19;130137;-72
2021/12/04 07:02:33;;;;;;;0.85;0.20;;;;;;;19.93;33.93;99600.84;7305692;19;130898;-69
2021/12/04 07:05:00;;;;;;;0.45;0.30;;;;;;;20.08;33.52;99607.41;7282557;19;130872;-69
2021/12/04 07:07:27;;;;;;;0.15;0.10;;;;;;;20.19;33.25;99603.44;7291397;19;131181;-68
2021/12/04 07:09:54;;;;;;;0.20;0.20;;;;;;;20.26;33.50;99601.19;7314052;19;128954;-68
2021/12/04 07:12:21;;;;;;;0.80;0.28;;;;;;;20.33;33.42;99603.63;7310445;19;129123;-69
2021/12/04 07:14:47;;;;;;;0.35;0.20;;;;;;;20.37;33.28;99603.88;7310661;19;131176;-68
2021/12/04 07:17:14;;;;;;;0.20;0.20;;;;;;;20.38;32.98;99602.75;7310575;19;131017;-69
2021/12/04 07:19:41;;;;;;;0.20;0.20;;;;;;;20.38;33.12;99599.97;7305544;19;129515;-69
2021/12/04 07:22:08;;;;;;;0.17;0.10;;;;;;;20.36;33.08;99603.06;7313155;19;131345;-68
2021/12/04 07:24:35;;;;;;;0.93;0.10;;;;;;;20.34;33.33;99608.06;7307121;19;131274;-68
2021/12/04 07:27:02;;;;;;;0.70;0.20;;;;;;;20.31;33.30;99599.50;7313366;19;131055;-68
2021/12/04 07:29:29;;;;;;;0.30;0.15;;;;;;;20.26;32.97;99598.41;7308627;19;133283;-71
2021/12/04 07:31:55;;;;;;;0.20;0.17;;;;;;;20.20;33.27;99588.44;7311253;19;129262;-69
2021/12/04 07:34:22;;;;;;;0.30;0.20;;;;;;;20.14;33.24;99582.09;7312886;19;131793;-69
2021/12/04 07:36:50;;;;;;;0.85;0.30;;;;;;;20.09;33.44;99586.88;7311017;19;131813;-69
2021/12/04 07:39:17;;;;;;;2.00;0.50;;;;;;;20.03;33.27;99588.84;7313997;19;131769;-68
2021/12/04 07:41:43;;;;;;;0.95;0.30;;;;;;;19.97;33.77;99584.44;7313752;19;131643;-69
2021/12/04 07:44:11;;;;;;;1.88;0.52;;;;;;;19.90;33.76;99575.59;7315804;19;131153;-70
2021/12/04 07:46:39;;;;;;;0.50;0.20;;;;;;;19.88;33.79;99578.66;7315634;19;131945;-69
2021/12/04 07:49:07;;;;;;;0.40;0.20;;;;;;;19.87;33.60;99568.69;7318356;19;129489;-68
2021/12/04 07:51:34;;;;;;;0.77;0.30;;;;;;;19.91;33.71;99574.47;7315319;19;129101;-68
2021/12/04 07:54:00;;;;;;;0.10;0.10;;;;;;;19.97;33.71;99565.81;7318198;19;131154;-69
2021/12/04 07:56:29;;;;;;;0.32;0.30;;;;;;;20.07;33.41;99564.09;7315431;19;131877;-69
2021/12/04 07:58:56;;;;;;;0.30;0.20;;;;;;;20.21;33.26;99556.78;7317703;19;128926;-69
2021/12/04 08:01:23;;;;;;;0.47;0.25;;;;;;;20.39;33.17;99548.88;7311880;19;130460;-69
2021/12/04 08:03:50;;;;;;;0.70;0.20;;;;;;;20.51;33.03;99542.91;7314701;19;131054;-69
2021/12/04 08:06:17;;;;;;;1.85;0.20;;;;;;;20.63;33.12;99542.53;7316045;19;131198;-70
2021/12/04 08:08:43;;;;;;;4.07;0.20;;;;;;;20.72;32.80;99540.75;7315080;19;128953;-70
2021/12/04 08:11:10;;;;;;;0.60;0.20;;;;;;;20.79;32.79;99534.88;7316739;19;128951;-70
2021/12/04 08:13:37;;;;;;;0.82;0.30;;;;;;;20.83;33.27;99539.53;7309618;19;131942;-69
2021/12/04 08:16:04;;;;;;;1.00;0.30;;;;;;;20.88;32.78;99544.22;7316101;19;131681;-74
2021/12/04 08:18:31;;;;;;;0.98;0.20;;;;;;;20.89;33.01;99541.16;7311203;19;128897;-70
2021/12/04 08:20:59;;;;;;;6.60;0.60;;;;;;;20.87;33.04;99540.63;7316441;19;129227;-73
2021/12/04 08:23:25;;;;;;;21.05;0.88;;;;;;;20.85;32.79;99548.44;7313908;19;134475;-77
2021/12/04 08:25:52;;;;;;;12.43;0.80;;;;;;;20.81;33.29;99541.78;7314916;19;131085;-68
2021/12/04 08:28:19;;;;;;;24.67;1.27;;;;;;;20.77;33.10;99534.34;7307953;19;128982;-67
2021/12/04 08:30:45;;;;;;;24.60;1.08;;;;;;;20.73;32.90;99542.41;7305770;19;130905;-65
2021/12/04 08:33:13;;;;;;;24.23;1.75;;;;;;;20.69;33.27;99539.41;7312612;19;133133;-65
2021/12/04 08:35:40;;;;;;;14.00;1.55;;;;;;;20.66;33.08;99528.88;7311140;19;131174;-66
2021/12/04 08:38:09;;;;;;;15.57;1.13;;;;;;;20.65;33.35;99524.44;7316997;19;128910;-66
2021/12/04 08:40:38;;;;;;;20.35;1.58;;;;;;;20.63;33.48;99528.63;7313019;19;129506;-66
2021/12/04 08:43:06;;;;;;;16.90;1.38;;;;;;;20.57;33.63;99514.78;7315444;19;131048;-66
2021/12/04 08:45:34;;;;;;;23.27;1.30;;;;;;;20.55;34.09;99505.94;7303931;19;131150;-67
2021/12/04 08:48:00;;;;;;;22.58;0.88;;;;;;;20.52;33.73;99500.13;7306672;19;129213;-70
2021/12/04 08:50:30;;;;;;;10.52;1.25;;;;;;;20.50;34.10;99503.19;7306057;19;132241;-70
2021/12/04 08:52:58;;;;;;;17.95;1.20;;;;;;;20.46;34.05;99502.13;7311326;19;131022;-68
2021/12/04 08:55:27;;;;;;;17.38;1.27;;;;;;;20.43;34.35;99513.84;7307156;19;131062;-68
2021/12/04 08:57:54;;;;;;;12.48;0.93;;;;;;;20.38;34.07;99506.34;7313065;19;130737;-68
2021/12/04 09:00:33;;;;;;;12.23;0.80;;;;;;;20.36;34.43;99510.56;7312483;19;131410;-68
2021/12/04 09:03:02;;;;;;;8.13;0.95;;;;;;;20.32;34.25;99506.69;7309507;19;131483;-70
2021/12/04 09:05:30;;;;;;;10.70;1.10;;;;;;;20.27;34.32;99510.34;7314748;19;131485;-74
2021/12/04 09:07:57;;;;;;;10.95;1.23;;;;;;;20.24;34.48;99516.53;7312431;19;129098;-71
2021/12/04 09:10:25;;;;;;;11.68;1.00;;;;;;;20.24;35.07;99517.34;7314817;19;129308;-69
2021/12/04 09:12:52;;;;;;;15.30;1.00;;;;;;;20.26;35.12;99503.16;7311384;19;137991;-73
2021/12/04 09:15:24;;;;;;;11.55;0.90;;;;;;;20.32;34.69;99504.75;7303875;19;131827;-69
2021/12/04 09:17:50;;;;;;;11.50;1.20;;;;;;;20.39;35.10;99512.75;7308722;19;129945;-70
2021/12/04 09:20:17;;;;;;;13.00;1.50;;;;;;;20.49;34.73;99515.44;7312004;19;129353;-72
2021/12/04 09:22:46;;;;;;;10.70;1.10;;;;;;;20.55;34.49;99507.88;7307211;19;133593;-70
2021/12/04 09:25:19;;;;;;;18.13;4.95;;;;;;;20.62;34.52;99499.19;7308768;19;131905;-68
2021/12/04 09:30:49;;;;;;;31.85;18.90;;;;;;;20.70;34.51;99495.75;7303035;19;129056;-69
2021/12/04 09:33:55;;;;;;;57.10;31.15;;;;;;;20.73;34.67;99489.59;7310842;19;133209;-70
2021/12/04 10:12:19;;;;;;;84.55;45.58;;;;;;;20.24;35.89;99470.13;7309666;19;128993;-68
2021/12/04 10:33:55;;;;;;;64.95;33.75;;;;;;;20.24;36.26;99444.31;7310807;19;128837;-69
2021/12/04 10:36:34;;;;;;;72.32;33.00;;;;;;;20.25;36.76;99441.25;7313350;19;130762;-71
2021/12/04 10:39:04;;;;;;;71.47;31.35;;;;;;;20.26;37.19;99437.34;7308927;19;133443;-69
2021/12/04 10:41:35;;;;;;;81.15;32.65;;;;;;;20.28;37.21;99428.69;7313488;19;131222;-67
2021/12/04 10:44:16;;;;;;;75.38;30.23;;;;;;;20.29;37.56;99422.88;7312235;19;128966;-68
2021/12/04 10:47:13;;;;;;;80.93;31.83;;;;;;;20.30;37.77;99418.13;7310829;19;129073;-67
2021/12/04 10:50:01;;;;;;;89.07;31.60;;;;;;;20.32;38.26;99420.59;7311977;19;131004;-67
2021/12/04 10:52:43;;;;;;;81.70;33.13;;;;;;;20.33;38.29;99409.22;7307643;19;130972;-68
2021/12/04 10:55:20;;;;;;;84.70;31.92;;;;;;;20.35;38.49;99411.69;7313687;19;128845;-70
2021/12/04 11:00:58;;;;;;;87.82;32.90;;;;;;;20.37;39.39;99409.44;7315152;19;132175;-70
2021/12/04 11:20:49;;;;;;;73.50;29.70;;;;;;;20.36;39.74;99403.09;7306697;19;129070;-67
2021/12/04 11:39:20;;;;;;;71.78;25.27;;;;;;;20.10;40.34;99411.69;7293529;19;129521;-68
2021/12/04 11:42:05;;;;;;;60.35;22.88;;;;;;;20.08;40.27;99402.81;7306999;19;129157;-68
2021/12/04 11:47:13;;;;;;;57.47;22.15;;;;;;;20.04;40.86;99406.47;7302905;19;132307;-67
2021/12/04 11:49:40;;;;;;;57.40;21.23;;;;;;;20.01;40.68;99402.31;7291360;19;132975;-67
2021/12/04 11:52:17;;;;;;;51.65;21.58;;;;;;;19.99;41.04;99405.41;7298496;19;132452;-67
2021/12/04 11:54:46;;;;;;;54.20;20.92;;;;;;;19.95;41.32;99401.50;7298681;19;131886;-67
2021/12/04 11:57:25;;;;;;;56.78;19.50;;;;;;;19.93;41.26;99398.22;7295922;19;132489;-68
2021/12/04 11:59:52;;;;;;;48.95;19.13;;;;;;;19.90;41.17;99401.56;7295310;19;130872;-70
2021/12/04 12:02:24;;;;;;;46.25;18.50;;;;;;;19.89;41.39;99396.31;7291942;19;131111;-68
2021/12/04 12:04:54;;;;;;;47.78;19.13;;;;;;;19.86;41.21;99394.94;7294115;19;132467;-68
2021/12/04 12:07:24;;;;;;;62.97;18.13;;;;;;;19.83;41.58;99384.44;7295562;19;132196;-68
2021/12/04 12:10:09;;;;;;;51.30;17.58;;;;;;;19.86;41.55;99378.28;7292834;19;128960;-68
2021/12/04 12:12:39;;;;;;;43.33;15.35;;;;;;;19.89;41.60;99383.28;7298896;19;129832;-69
2021/12/04 12:15:33;;;;;;;42.15;14.73;;;;;;;19.98;41.97;99375.13;7296040;19;131596;-68
2021/12/04 12:18:14;;;;;;;41.78;15.23;;;;;;;20.07;41.55;99367.84;7296045;19;132339;-65
2021/12/04 12:20:47;;;;;;;37.20;13.88;;;;;;;20.18;41.41;99363.03;7304711;19;129468;-66
2021/12/04 12:23:18;;;;;;;36.40;14.13;;;;;;;20.34;41.20;99362.81;7302196;19;131370;-69
2021/12/04 12:34:07;;;;;;;39.75;11.50;;;;;;;21.01;41.02;99357.22;7304572;19;132126;-70
2021/12/04 12:36:34;;;;;;;33.05;10.00;;;;;;;21.15;40.82;99360.09;7297794;19;133424;-67
2021/12/04 12:39:11;;;;;;;35.25;9.95;;;;;;;21.30;40.57;99358.19;7307576;19;133304;-70
2021/12/04 12:41:40;;;;;;;34.83;10.55;;;;;;;21.40;40.37;99366.38;7308161;19;128828;-70
2021/12/04 12:44:18;;;;;;;30.75;9.93;;;;;;;21.52;40.12;99363.13;7314993;19;130712;-71
2021/12/04 12:46:47;;;;;;;32.78;9.52;;;;;;;21.62;40.15;99371.31;7308413;19;131334;-66
2021/12/04 12:49:37;;;;;;;38.28;8.77;;;;;;;21.68;40.58;99369.25;7314736;19;131611;-68
2021/12/04 12:52:05;;;;;;;37.53;9.32;;;;;;;21.78;40.76;99373.84;7310603;19;129439;-67
2021/12/04 12:54:55;;;;;;;31.13;7.90;;;;;;;21.85;40.37;99362.31;7310201;19;129579;-68
2021/12/04 12:57:30;;;;;;;30.92;8.00;;;;;;;21.92;40.13;99363.56;7313731;19;131885;-69
2021/12/04 13:11:47;;;;;;;23.25;6.82;;;;;;;22.26;40.24;99373.50;7315785;19;131502;-68
2021/12/04 13:14:28;;;;;;;23.42;5.90;;;;;;;22.33;39.90;99366.72;7310985;19;130428;-67
2021/12/04 13:17:23;;;;;;;22.42;6.05;;;;;;;22.36;39.83;99366.91;7305556;19;133770;-72
2021/12/04 13:19:53;;;;;;;18.73;6.10;;;;;;;22.40;39.82;99376.28;7312534;19;131727;-71
2021/12/04 13:22:24;;;;;;;19.13;5.72;;;;;;;22.42;39.95;99365.66;7311733;19;131183;-69
2021/12/04 13:24:53;;;;;;;21.65;5.53;;;;;;;22.43;39.97;99370.09;7315666;19;128898;-69
2021/12/04 13:29:57;;;;;;;23.13;5.15;;;;;;;22.44;39.96;99382.91;7315284;19;131709;-69
2021/12/04 13:32:35;;;;;;;18.08;4.85;;;;;;;22.44;40.59;99363.41;7310789;19;131090;-68
2021/12/04 13:35:13;;;;;;;20.08;5.03;;;;;;;22.44;40.39;99376.53;7314818;19;128940;-69
2021/12/04 13:37:40;;;;;;;22.98;4.78;;;;;;;22.41;40.48;99377.13;7308921;19;129253;-68
2021/12/04 13:40:11;;;;;;;18.90;4.72;;;;;;;22.36;40.53;99382.81;7312109;19;131086;-68
2021/12/04 13:42:39;;;;;;;16.58;4.65;;;;;;;22.31;40.54;99380.94;7311250;19;131922;-68
2021/12/04 13:45:10;;;;;;;15.32;4.72;;;;;;;22.27;40.98;99386.31;7309807;19;128995;-72
2021/12/04 13:47:38;;;;;;;14.77;3.60;;;;;;;22.23;41.10;99387.25;7313708;19;129254;-70
2021/12/04 13:53:01;;;;;;;16.20;4.55;;;;;;;22.10;41.52;99392.47;7314117;19;131025;-69
2021/12/04 13:55:30;;;;;;;15.98;4.25;;;;;;;22.05;41.59;99400.09;7310469;19;130063;-70
2021/12/04 13:57:57;;;;;;;14.93;4.72;;;;;;;21.99;41.42;99396.56;7312431;19;129097;-72
2021/12/04 14:00:24;;;;;;;17.85;4.00;;;;;;;21.93;42.07;99404.19;7310407;19;131054;-71
2021/12/04 14:02:51;;;;;;;15.63;4.30;;;;;;;21.86;42.15;99409.31;7309112;19;131435;-66
2021/12/04 14:05:21;;;;;;;15.18;4.10;;;;;;;21.80;42.33;99419.72;7312371;19;129095;-69
2021/12/04 14:07:54;;;;;;;12.23;3.78;;;;;;;21.75;42.29;99421.75;7310111;19;129389;-69
2021/12/04 14:10:27;;;;;;;15.35;4.28;;;;;;;21.67;41.99;99418.56;7312436;19;131894;-76
2021/12/04 14:12:54;;;;;;;21.73;3.72;;;;;;;21.62;41.79;99426.16;7307961;19;131210;-72
2021/12/04 14:15:23;;;;;;;25.88;3.90;;;;;;;21.54;42.20;99424.88;7312566;19;131798;-70
2021/12/04 14:18:05;;;;;;;24.15;3.92;;;;;;;21.47;42.00;99425.22;7308951;19;131230;-64
2021/12/04 14:20:34;;;;;;;23.40;4.63;;;;;;;21.41;42.21;99440.38;7312389;19;131177;-64
2021/12/04 14:23:01;;;;;;;18.02;3.72;;;;;;;21.34;42.36;99437.13;7310319;19;131028;-63
2021/12/04 14:25:29;;;;;;;31.38;5.45;;;;;;;21.27;41.88;99442.25;7311387;19;129100;-62
2021/12/04 14:27:58;;;;;;;30.25;5.32;;;;;;;21.18;42.13;99437.34;7312313;19;129080;-61
2021/12/04 14:30:32;;;;;;;32.45;5.00;;;;;;;21.15;42.28;99451.03;7305258;19;131898;-61
2021/12/04 14:33:01;;;;;;;27.85;5.35;;;;;;;21.10;41.92;99449.16;7311325;19;131166;-62
2021/12/04 14:35:32;;;;;;;40.92;5.97;;;;;;;21.08;42.54;99447.78;7304296;19;130741;-62
2021/12/04 14:38:01;;;;;;;32.85;5.18;;;;;;;21.04;42.61;99450.34;7312615;19;129208;-62
2021/12/04 14:40:35;;;;;;;32.22;5.07;;;;;;;21.03;42.43;99468.16;7308922;19;131736;-63
2021/12/04 14:43:04;;;;;;;40.15;5.10;;;;;;;21.01;42.59;99464.84;7308331;19;132065;-58
2021/12/04 14:45:35;;;;;;;39.58;4.90;;;;;;;21.00;42.59;99471.53;7311229;19;131054;-62